sensor_id;sensor_type;location;lat;lon;timestamp;P1;durP1;ratioP1;P2;durP2;ratioP2
43457;SDS011;29046;54.184;18.680;2023-07-29T00:02:22;9.40;;;7.88;;
43457;SDS011;29046;54.184;18.680;2023-07-29T00:04:49;12.82;;;7.60;;
43457;SDS011;29046;54.184;18.680;2023-07-29T00:07:17;10.52;;;7.70;;
43457;SDS011;29046;54.184;18.680;2023-07-29T00:09:44;12.70;;;7.68;;
43457;SDS011;29046;54.184;18.680;2023-07-29T00:12:12;10.30;;;7.55;;
43457;SDS011;29046;54.184;18.680;2023-07-29T00:14:39;12.27;;;9.02;;
43457;SDS011;29046;54.184;18.680;2023-07-29T00:17:07;15.52;;;9.65;;
43457;SDS011;29046;54.184;18.680;2023-07-29T00:19:35;15.20;;;10.25;;
43457;SDS011;29046;54.184;18.680;2023-07-29T00:22:02;19.65;;;9.95;;
43457;SDS011;29046;54.184;18.680;2023-07-29T00:24:30;15.30;;;10.15;;
43457;SDS011;29046;54.184;18.680;2023-07-29T00:26:57;13.55;;;10.27;;
43457;SDS011;29046;54.184;18.680;2023-07-29T00:29:25;13.98;;;9.45;;
43457;SDS011;29046;54.184;18.680;2023-07-29T00:31:52;17.83;;;10.57;;
43457;SDS011;29046;54.184;18.680;2023-07-29T00:34:20;12.57;;;9.40;;
43457;SDS011;29046;54.184;18.680;2023-07-29T00:36:48;16.98;;;10.32;;
43457;SDS011;29046;54.184;18.680;2023-07-29T00:39:15;13.93;;;10.43;;
43457;SDS011;29046;54.184;18.680;2023-07-29T00:41:43;18.60;;;12.10;;
43457;SDS011;29046;54.184;18.680;2023-07-29T00:44:10;16.73;;;11.40;;
43457;SDS011;29046;54.184;18.680;2023-07-29T00:46:38;14.77;;;10.98;;
43457;SDS011;29046;54.184;18.680;2023-07-29T00:49:08;13.15;;;10.13;;
43457;SDS011;29046;54.184;18.680;2023-07-29T00:51:36;16.00;;;11.32;;
43457;SDS011;29046;54.184;18.680;2023-07-29T00:54:04;17.40;;;10.30;;
43457;SDS011;29046;54.184;18.680;2023-07-29T00:56:31;23.30;;;10.75;;
43457;SDS011;29046;54.184;18.680;2023-07-29T00:58:59;16.45;;;12.20;;
43457;SDS011;29046;54.184;18.680;2023-07-29T01:01:28;15.18;;;11.10;;
43457;SDS011;29046;54.184;18.680;2023-07-29T01:03:56;14.77;;;11.07;;
43457;SDS011;29046;54.184;18.680;2023-07-29T01:09:11;14.15;;;10.95;;
43457;SDS011;29046;54.184;18.680;2023-07-29T01:14:39;16.00;;;10.10;;
43457;SDS011;29046;54.184;18.680;2023-07-29T01:17:09;15.98;;;10.85;;
43457;SDS011;29046;54.184;18.680;2023-07-29T01:22:07;14.30;;;11.00;;
43457;SDS011;29046;54.184;18.680;2023-07-29T01:24:35;19.17;;;11.85;;
43457;SDS011;29046;54.184;18.680;2023-07-29T01:27:03;15.02;;;10.77;;
43457;SDS011;29046;54.184;18.680;2023-07-29T01:29:31;16.40;;;10.88;;
43457;SDS011;29046;54.184;18.680;2023-07-29T01:32:01;13.73;;;10.20;;
43457;SDS011;29046;54.184;18.680;2023-07-29T01:34:35;14.40;;;9.98;;
43457;SDS011;29046;54.184;18.680;2023-07-29T01:37:07;13.48;;;9.88;;
43457;SDS011;29046;54.184;18.680;2023-07-29T01:39:36;18.77;;;10.15;;
43457;SDS011;29046;54.184;18.680;2023-07-29T01:42:04;16.80;;;9.90;;
43457;SDS011;29046;54.184;18.680;2023-07-29T01:44:32;16.30;;;9.85;;
43457;SDS011;29046;54.184;18.680;2023-07-29T01:47:00;16.90;;;10.13;;
43457;SDS011;29046;54.184;18.680;2023-07-29T01:49:27;18.75;;;9.75;;
43457;SDS011;29046;54.184;18.680;2023-07-29T01:51:55;16.45;;;9.45;;
43457;SDS011;29046;54.184;18.680;2023-07-29T01:54:22;22.08;;;11.13;;
43457;SDS011;29046;54.184;18.680;2023-07-29T01:56:50;15.52;;;9.02;;
43457;SDS011;29046;54.184;18.680;2023-07-29T01:59:17;14.77;;;9.95;;
43457;SDS011;29046;54.184;18.680;2023-07-29T02:01:45;17.15;;;9.38;;
43457;SDS011;29046;54.184;18.680;2023-07-29T02:04:13;14.88;;;10.25;;
43457;SDS011;29046;54.184;18.680;2023-07-29T02:06:41;19.60;;;9.52;;
43457;SDS011;29046;54.184;18.680;2023-07-29T02:09:09;14.23;;;10.25;;
43457;SDS011;29046;54.184;18.680;2023-07-29T02:11:36;20.33;;;10.57;;
43457;SDS011;29046;54.184;18.680;2023-07-29T02:14:04;14.02;;;10.65;;
43457;SDS011;29046;54.184;18.680;2023-07-29T02:16:32;19.13;;;11.60;;
43457;SDS011;29046;54.184;18.680;2023-07-29T02:19:01;16.13;;;10.43;;
43457;SDS011;29046;54.184;18.680;2023-07-29T02:21:30;15.48;;;10.77;;
43457;SDS011;29046;54.184;18.680;2023-07-29T02:23:57;18.15;;;11.27;;
43457;SDS011;29046;54.184;18.680;2023-07-29T02:26:25;15.80;;;10.50;;
43457;SDS011;29046;54.184;18.680;2023-07-29T02:28:52;17.05;;;11.02;;
43457;SDS011;29046;54.184;18.680;2023-07-29T02:31:21;16.95;;;10.10;;
43457;SDS011;29046;54.184;18.680;2023-07-29T02:33:49;13.43;;;10.52;;
43457;SDS011;29046;54.184;18.680;2023-07-29T02:36:17;20.50;;;11.52;;
43457;SDS011;29046;54.184;18.680;2023-07-29T02:38:45;19.60;;;12.35;;
43457;SDS011;29046;54.184;18.680;2023-07-29T02:41:13;17.77;;;12.27;;
43457;SDS011;29046;54.184;18.680;2023-07-29T02:43:51;22.85;;;13.13;;
43457;SDS011;29046;54.184;18.680;2023-07-29T02:46:19;16.98;;;12.25;;
43457;SDS011;29046;54.184;18.680;2023-07-29T02:48:47;15.80;;;11.55;;
43457;SDS011;29046;54.184;18.680;2023-07-29T02:51:14;19.02;;;12.25;;
43457;SDS011;29046;54.184;18.680;2023-07-29T02:53:42;19.00;;;13.45;;
43457;SDS011;29046;54.184;18.680;2023-07-29T02:56:10;17.00;;;12.57;;
43457;SDS011;29046;54.184;18.680;2023-07-29T02:58:38;17.27;;;12.48;;
43457;SDS011;29046;54.184;18.680;2023-07-29T03:01:06;20.10;;;12.40;;
43457;SDS011;29046;54.184;18.680;2023-07-29T03:03:34;17.60;;;12.20;;
43457;SDS011;29046;54.184;18.680;2023-07-29T03:06:09;17.65;;;11.35;;
43457;SDS011;29046;54.184;18.680;2023-07-29T03:08:36;20.75;;;11.80;;
43457;SDS011;29046;54.184;18.680;2023-07-29T03:11:05;14.27;;;11.48;;
43457;SDS011;29046;54.184;18.680;2023-07-29T03:13:33;15.70;;;11.45;;
43457;SDS011;29046;54.184;18.680;2023-07-29T03:16:08;18.65;;;11.93;;
43457;SDS011;29046;54.184;18.680;2023-07-29T03:18:36;16.92;;;12.40;;
43457;SDS011;29046;54.184;18.680;2023-07-29T03:21:04;17.48;;;10.90;;
43457;SDS011;29046;54.184;18.680;2023-07-29T03:23:32;18.48;;;11.32;;
43457;SDS011;29046;54.184;18.680;2023-07-29T03:26:01;23.75;;;10.68;;
43457;SDS011;29046;54.184;18.680;2023-07-29T03:28:32;15.35;;;10.38;;
43457;SDS011;29046;54.184;18.680;2023-07-29T03:31:00;17.17;;;11.02;;
43457;SDS011;29046;54.184;18.680;2023-07-29T03:33:27;13.38;;;9.65;;
43457;SDS011;29046;54.184;18.680;2023-07-29T03:35:55;12.27;;;8.60;;
43457;SDS011;29046;54.184;18.680;2023-07-29T03:38:22;13.27;;;9.65;;
43457;SDS011;29046;54.184;18.680;2023-07-29T03:40:50;12.32;;;9.43;;
43457;SDS011;29046;54.184;18.680;2023-07-29T03:43:18;13.57;;;9.50;;
43457;SDS011;29046;54.184;18.680;2023-07-29T03:45:45;16.35;;;10.25;;
43457;SDS011;29046;54.184;18.680;2023-07-29T03:48:13;13.05;;;9.07;;
43457;SDS011;29046;54.184;18.680;2023-07-29T03:50:40;11.63;;;8.30;;
43457;SDS011;29046;54.184;18.680;2023-07-29T03:53:08;10.93;;;7.55;;
43457;SDS011;29046;54.184;18.680;2023-07-29T03:55:37;9.93;;;7.43;;
43457;SDS011;29046;54.184;18.680;2023-07-29T03:58:05;11.48;;;7.53;;
43457;SDS011;29046;54.184;18.680;2023-07-29T04:00:33;11.00;;;8.35;;
43457;SDS011;29046;54.184;18.680;2023-07-29T04:03:00;13.65;;;8.82;;
43457;SDS011;29046;54.184;18.680;2023-07-29T04:05:28;9.80;;;8.07;;
43457;SDS011;29046;54.184;18.680;2023-07-29T04:07:56;8.85;;;7.00;;
43457;SDS011;29046;54.184;18.680;2023-07-29T04:10:24;8.98;;;7.07;;
43457;SDS011;29046;54.184;18.680;2023-07-29T04:12:51;8.45;;;6.88;;
43457;SDS011;29046;54.184;18.680;2023-07-29T04:15:19;11.18;;;7.28;;
43457;SDS011;29046;54.184;18.680;2023-07-29T04:17:46;8.43;;;6.88;;
43457;SDS011;29046;54.184;18.680;2023-07-29T04:20:14;10.50;;;6.22;;
43457;SDS011;29046;54.184;18.680;2023-07-29T04:22:42;8.57;;;6.93;;
43457;SDS011;29046;54.184;18.680;2023-07-29T04:25:09;9.65;;;7.53;;
43457;SDS011;29046;54.184;18.680;2023-07-29T04:27:37;10.57;;;7.10;;
43457;SDS011;29046;54.184;18.680;2023-07-29T04:30:05;8.50;;;5.68;;
43457;SDS011;29046;54.184;18.680;2023-07-29T04:32:32;6.35;;;5.30;;
43457;SDS011;29046;54.184;18.680;2023-07-29T04:35:00;5.97;;;4.82;;
43457;SDS011;29046;54.184;18.680;2023-07-29T04:37:28;6.65;;;5.63;;
43457;SDS011;29046;54.184;18.680;2023-07-29T04:39:55;7.82;;;4.68;;
43457;SDS011;29046;54.184;18.680;2023-07-29T04:42:23;6.55;;;4.80;;
43457;SDS011;29046;54.184;18.680;2023-07-29T04:44:50;6.30;;;5.32;;
43457;SDS011;29046;54.184;18.680;2023-07-29T04:47:18;4.93;;;4.15;;
43457;SDS011;29046;54.184;18.680;2023-07-29T04:49:45;6.00;;;4.10;;
43457;SDS011;29046;54.184;18.680;2023-07-29T04:52:13;5.90;;;4.53;;
43457;SDS011;29046;54.184;18.680;2023-07-29T04:54:41;6.45;;;4.13;;
43457;SDS011;29046;54.184;18.680;2023-07-29T04:57:09;6.32;;;4.28;;
43457;SDS011;29046;54.184;18.680;2023-07-29T04:59:36;5.88;;;4.50;;
43457;SDS011;29046;54.184;18.680;2023-07-29T05:02:04;5.00;;;4.38;;
43457;SDS011;29046;54.184;18.680;2023-07-29T05:04:32;7.22;;;4.20;;
43457;SDS011;29046;54.184;18.680;2023-07-29T05:06:59;6.10;;;4.38;;
43457;SDS011;29046;54.184;18.680;2023-07-29T05:09:27;5.30;;;3.92;;
43457;SDS011;29046;54.184;18.680;2023-07-29T05:11:54;34.03;;;15.95;;
43457;SDS011;29046;54.184;18.680;2023-07-29T05:14:22;35.30;;;14.65;;
43457;SDS011;29046;54.184;18.680;2023-07-29T05:16:49;8.07;;;4.22;;
43457;SDS011;29046;54.184;18.680;2023-07-29T05:19:17;8.63;;;4.35;;
43457;SDS011;29046;54.184;18.680;2023-07-29T05:21:45;3.83;;;3.20;;
43457;SDS011;29046;54.184;18.680;2023-07-29T05:24:12;5.45;;;3.30;;
43457;SDS011;29046;54.184;18.680;2023-07-29T05:26:40;4.80;;;3.20;;
43457;SDS011;29046;54.184;18.680;2023-07-29T05:29:07;5.88;;;3.45;;
43457;SDS011;29046;54.184;18.680;2023-07-29T05:31:35;4.07;;;3.10;;
43457;SDS011;29046;54.184;18.680;2023-07-29T05:34:02;3.72;;;3.17;;
43457;SDS011;29046;54.184;18.680;2023-07-29T05:36:30;5.13;;;3.00;;
43457;SDS011;29046;54.184;18.680;2023-07-29T05:38:58;8.70;;;3.78;;
43457;SDS011;29046;54.184;18.680;2023-07-29T05:41:25;5.28;;;3.70;;
43457;SDS011;29046;54.184;18.680;2023-07-29T05:43:54;6.65;;;3.70;;
43457;SDS011;29046;54.184;18.680;2023-07-29T05:46:22;4.82;;;4.05;;
43457;SDS011;29046;54.184;18.680;2023-07-29T05:48:50;4.93;;;4.22;;
43457;SDS011;29046;54.184;18.680;2023-07-29T05:51:17;5.22;;;4.72;;
43457;SDS011;29046;54.184;18.680;2023-07-29T05:53:45;4.80;;;3.15;;
43457;SDS011;29046;54.184;18.680;2023-07-29T05:56:13;4.72;;;3.40;;
43457;SDS011;29046;54.184;18.680;2023-07-29T05:58:40;4.32;;;2.92;;
43457;SDS011;29046;54.184;18.680;2023-07-29T06:01:08;9.60;;;3.10;;
43457;SDS011;29046;54.184;18.680;2023-07-29T06:03:36;3.75;;;2.80;;
43457;SDS011;29046;54.184;18.680;2023-07-29T06:06:03;3.38;;;2.55;;
43457;SDS011;29046;54.184;18.680;2023-07-29T06:08:31;4.60;;;2.70;;
43457;SDS011;29046;54.184;18.680;2023-07-29T06:11:00;3.97;;;2.95;;
43457;SDS011;29046;54.184;18.680;2023-07-29T06:13:28;4.03;;;2.78;;
43457;SDS011;29046;54.184;18.680;2023-07-29T06:15:55;3.78;;;2.90;;
43457;SDS011;29046;54.184;18.680;2023-07-29T06:18:24;5.22;;;3.03;;
43457;SDS011;29046;54.184;18.680;2023-07-29T06:20:51;3.55;;;2.83;;
43457;SDS011;29046;54.184;18.680;2023-07-29T06:23:19;4.25;;;3.08;;
43457;SDS011;29046;54.184;18.680;2023-07-29T06:25:47;3.00;;;2.63;;
43457;SDS011;29046;54.184;18.680;2023-07-29T06:28:14;3.33;;;2.85;;
43457;SDS011;29046;54.184;18.680;2023-07-29T06:30:42;3.88;;;2.95;;
43457;SDS011;29046;54.184;18.680;2023-07-29T06:33:09;3.80;;;2.85;;
43457;SDS011;29046;54.184;18.680;2023-07-29T06:35:37;3.63;;;3.00;;
43457;SDS011;29046;54.184;18.680;2023-07-29T06:38:05;3.60;;;3.00;;
43457;SDS011;29046;54.184;18.680;2023-07-29T06:40:32;5.78;;;3.15;;
43457;SDS011;29046;54.184;18.680;2023-07-29T06:43:00;3.33;;;2.75;;
43457;SDS011;29046;54.184;18.680;2023-07-29T06:45:27;3.85;;;3.00;;
43457;SDS011;29046;54.184;18.680;2023-07-29T06:47:55;3.85;;;3.08;;
43457;SDS011;29046;54.184;18.680;2023-07-29T06:50:22;7.45;;;3.63;;
43457;SDS011;29046;54.184;18.680;2023-07-29T06:52:50;5.15;;;2.70;;
43457;SDS011;29046;54.184;18.680;2023-07-29T06:55:18;8.75;;;2.83;;
43457;SDS011;29046;54.184;18.680;2023-07-29T06:57:45;8.98;;;6.38;;
43457;SDS011;29046;54.184;18.680;2023-07-29T07:00:13;16.52;;;10.75;;
43457;SDS011;29046;54.184;18.680;2023-07-29T07:02:40;28.42;;;20.27;;
43457;SDS011;29046;54.184;18.680;2023-07-29T07:05:08;18.05;;;11.90;;
43457;SDS011;29046;54.184;18.680;2023-07-29T07:07:36;10.35;;;7.93;;
43457;SDS011;29046;54.184;18.680;2023-07-29T07:10:04;3.88;;;3.40;;
43457;SDS011;29046;54.184;18.680;2023-07-29T07:12:32;8.57;;;3.92;;
43457;SDS011;29046;54.184;18.680;2023-07-29T07:15:00;5.63;;;3.80;;
43457;SDS011;29046;54.184;18.680;2023-07-29T07:17:27;13.38;;;5.38;;
43457;SDS011;29046;54.184;18.680;2023-07-29T07:19:55;6.28;;;3.38;;
43457;SDS011;29046;54.184;18.680;2023-07-29T07:22:22;4.75;;;3.50;;
43457;SDS011;29046;54.184;18.680;2023-07-29T07:24:50;8.55;;;4.43;;
43457;SDS011;29046;54.184;18.680;2023-07-29T07:27:18;7.45;;;4.25;;
43457;SDS011;29046;54.184;18.680;2023-07-29T07:29:45;4.38;;;2.70;;
43457;SDS011;29046;54.184;18.680;2023-07-29T07:32:13;11.20;;;5.15;;
43457;SDS011;29046;54.184;18.680;2023-07-29T07:34:40;4.90;;;3.45;;
43457;SDS011;29046;54.184;18.680;2023-07-29T07:37:08;4.95;;;3.25;;
43457;SDS011;29046;54.184;18.680;2023-07-29T07:39:35;8.57;;;4.00;;
43457;SDS011;29046;54.184;18.680;2023-07-29T07:42:03;9.25;;;4.15;;
43457;SDS011;29046;54.184;18.680;2023-07-29T07:44:30;6.85;;;3.33;;
43457;SDS011;29046;54.184;18.680;2023-07-29T07:46:58;6.47;;;2.80;;
43457;SDS011;29046;54.184;18.680;2023-07-29T07:49:30;4.30;;;3.20;;
43457;SDS011;29046;54.184;18.680;2023-07-29T07:51:57;4.85;;;3.00;;
43457;SDS011;29046;54.184;18.680;2023-07-29T07:54:25;3.50;;;2.95;;
43457;SDS011;29046;54.184;18.680;2023-07-29T07:56:52;3.42;;;2.85;;
43457;SDS011;29046;54.184;18.680;2023-07-29T07:59:20;5.53;;;3.22;;
43457;SDS011;29046;54.184;18.680;2023-07-29T08:01:47;4.90;;;2.88;;
43457;SDS011;29046;54.184;18.680;2023-07-29T08:04:15;2.85;;;2.53;;
43457;SDS011;29046;54.184;18.680;2023-07-29T08:06:43;3.72;;;2.80;;
43457;SDS011;29046;54.184;18.680;2023-07-29T08:09:10;5.28;;;2.65;;
43457;SDS011;29046;54.184;18.680;2023-07-29T08:11:38;4.80;;;2.80;;
43457;SDS011;29046;54.184;18.680;2023-07-29T08:14:05;8.45;;;3.38;;
43457;SDS011;29046;54.184;18.680;2023-07-29T08:16:33;4.68;;;2.88;;
43457;SDS011;29046;54.184;18.680;2023-07-29T08:19:01;5.75;;;2.65;;
43457;SDS011;29046;54.184;18.680;2023-07-29T08:21:29;5.55;;;2.63;;
43457;SDS011;29046;54.184;18.680;2023-07-29T08:23:56;3.28;;;2.55;;
43457;SDS011;29046;54.184;18.680;2023-07-29T08:26:24;4.68;;;3.28;;
43457;SDS011;29046;54.184;18.680;2023-07-29T08:28:52;3.67;;;2.40;;
43457;SDS011;29046;54.184;18.680;2023-07-29T08:31:21;3.70;;;2.80;;
43457;SDS011;29046;54.184;18.680;2023-07-29T08:33:48;3.85;;;2.42;;
43457;SDS011;29046;54.184;18.680;2023-07-29T08:36:16;3.60;;;3.03;;
43457;SDS011;29046;54.184;18.680;2023-07-29T08:38:43;6.10;;;3.20;;
43457;SDS011;29046;54.184;18.680;2023-07-29T08:41:22;3.15;;;2.85;;
43457;SDS011;29046;54.184;18.680;2023-07-29T08:43:52;3.65;;;2.92;;
43457;SDS011;29046;54.184;18.680;2023-07-29T08:46:20;3.95;;;2.90;;
43457;SDS011;29046;54.184;18.680;2023-07-29T08:48:48;6.95;;;3.58;;
43457;SDS011;29046;54.184;18.680;2023-07-29T08:51:16;4.53;;;3.65;;
43457;SDS011;29046;54.184;18.680;2023-07-29T08:53:44;3.85;;;2.85;;
43457;SDS011;29046;54.184;18.680;2023-07-29T08:56:12;6.38;;;4.20;;
43457;SDS011;29046;54.184;18.680;2023-07-29T08:58:40;5.40;;;3.13;;
43457;SDS011;29046;54.184;18.680;2023-07-29T09:01:07;6.95;;;3.22;;
43457;SDS011;29046;54.184;18.680;2023-07-29T09:03:36;5.50;;;3.17;;
43457;SDS011;29046;54.184;18.680;2023-07-29T09:06:04;5.25;;;2.85;;
43457;SDS011;29046;54.184;18.680;2023-07-29T09:08:32;3.25;;;2.78;;
43457;SDS011;29046;54.184;18.680;2023-07-29T09:11:00;3.58;;;2.90;;
43457;SDS011;29046;54.184;18.680;2023-07-29T09:13:28;3.25;;;2.72;;
43457;SDS011;29046;54.184;18.680;2023-07-29T09:15:57;8.93;;;3.25;;
43457;SDS011;29046;54.184;18.680;2023-07-29T09:18:25;3.72;;;2.80;;
43457;SDS011;29046;54.184;18.680;2023-07-29T09:20:53;5.93;;;2.83;;
43457;SDS011;29046;54.184;18.680;2023-07-29T09:23:21;2.63;;;2.42;;
43457;SDS011;29046;54.184;18.680;2023-07-29T09:25:48;7.72;;;3.22;;
43457;SDS011;29046;54.184;18.680;2023-07-29T09:28:16;3.20;;;2.70;;
43457;SDS011;29046;54.184;18.680;2023-07-29T09:30:45;4.10;;;2.80;;
43457;SDS011;29046;54.184;18.680;2023-07-29T09:33:13;4.88;;;3.08;;
43457;SDS011;29046;54.184;18.680;2023-07-29T09:35:41;4.53;;;2.83;;
43457;SDS011;29046;54.184;18.680;2023-07-29T09:38:08;4.40;;;2.92;;
43457;SDS011;29046;54.184;18.680;2023-07-29T09:40:42;6.32;;;3.60;;
43457;SDS011;29046;54.184;18.680;2023-07-29T09:43:11;3.97;;;3.08;;
43457;SDS011;29046;54.184;18.680;2023-07-29T09:45:39;5.25;;;2.97;;
43457;SDS011;29046;54.184;18.680;2023-07-29T09:48:07;4.38;;;3.03;;
43457;SDS011;29046;54.184;18.680;2023-07-29T09:50:37;8.45;;;3.00;;
43457;SDS011;29046;54.184;18.680;2023-07-29T09:53:05;3.30;;;2.85;;
43457;SDS011;29046;54.184;18.680;2023-07-29T09:55:34;3.90;;;3.22;;
43457;SDS011;29046;54.184;18.680;2023-07-29T09:58:02;3.38;;;2.80;;
43457;SDS011;29046;54.184;18.680;2023-07-29T10:00:33;5.38;;;2.55;;
43457;SDS011;29046;54.184;18.680;2023-07-29T10:03:01;3.90;;;2.78;;
43457;SDS011;29046;54.184;18.680;2023-07-29T10:05:29;5.65;;;3.35;;
43457;SDS011;29046;54.184;18.680;2023-07-29T10:07:56;3.58;;;2.80;;
43457;SDS011;29046;54.184;18.680;2023-07-29T10:10:24;3.58;;;2.60;;
43457;SDS011;29046;54.184;18.680;2023-07-29T10:12:53;5.15;;;2.47;;
43457;SDS011;29046;54.184;18.680;2023-07-29T10:15:21;5.68;;;2.60;;
43457;SDS011;29046;54.184;18.680;2023-07-29T10:17:49;4.35;;;2.80;;
43457;SDS011;29046;54.184;18.680;2023-07-29T10:20:17;3.83;;;2.83;;
43457;SDS011;29046;54.184;18.680;2023-07-29T10:22:47;3.72;;;2.63;;
43457;SDS011;29046;54.184;18.680;2023-07-29T10:25:19;4.55;;;2.78;;
43457;SDS011;29046;54.184;18.680;2023-07-29T10:28:02;4.03;;;2.70;;
43457;SDS011;29046;54.184;18.680;2023-07-29T10:30:31;3.08;;;2.50;;
43457;SDS011;29046;54.184;18.680;2023-07-29T10:33:02;4.18;;;2.85;;
43457;SDS011;29046;54.184;18.680;2023-07-29T10:35:32;8.27;;;2.70;;
43457;SDS011;29046;54.184;18.680;2023-07-29T10:38:00;3.85;;;3.08;;
43457;SDS011;29046;54.184;18.680;2023-07-29T10:40:47;7.05;;;2.53;;
43457;SDS011;29046;54.184;18.680;2023-07-29T10:43:19;3.03;;;2.60;;
43457;SDS011;29046;54.184;18.680;2023-07-29T10:45:47;4.07;;;3.10;;
43457;SDS011;29046;54.184;18.680;2023-07-29T10:53:52;3.67;;;3.20;;
43457;SDS011;29046;54.184;18.680;2023-07-29T10:56:27;3.97;;;2.85;;
43457;SDS011;29046;54.184;18.680;2023-07-29T10:58:55;5.18;;;2.78;;
43457;SDS011;29046;54.184;18.680;2023-07-29T11:01:26;3.15;;;2.85;;
43457;SDS011;29046;54.184;18.680;2023-07-29T11:04:29;4.97;;;2.78;;
43457;SDS011;29046;54.184;18.680;2023-07-29T11:12:37;7.43;;;2.72;;
43457;SDS011;29046;54.184;18.680;2023-07-29T11:15:19;4.45;;;2.70;;
43457;SDS011;29046;54.184;18.680;2023-07-29T11:20:14;6.32;;;3.25;;
43457;SDS011;29046;54.184;18.680;2023-07-29T11:22:43;9.88;;;3.40;;
43457;SDS011;29046;54.184;18.680;2023-07-29T11:25:11;6.70;;;2.78;;
43457;SDS011;29046;54.184;18.680;2023-07-29T11:27:39;3.65;;;2.80;;
43457;SDS011;29046;54.184;18.680;2023-07-29T11:30:10;5.35;;;2.55;;
43457;SDS011;29046;54.184;18.680;2023-07-29T11:32:39;4.50;;;2.70;;
43457;SDS011;29046;54.184;18.680;2023-07-29T11:35:07;6.80;;;2.60;;
43457;SDS011;29046;54.184;18.680;2023-07-29T11:37:37;6.25;;;3.03;;
43457;SDS011;29046;54.184;18.680;2023-07-29T11:40:05;5.72;;;3.20;;
43457;SDS011;29046;54.184;18.680;2023-07-29T11:42:33;4.10;;;2.92;;
43457;SDS011;29046;54.184;18.680;2023-07-29T11:45:02;5.75;;;3.10;;
43457;SDS011;29046;54.184;18.680;2023-07-29T11:47:31;5.70;;;2.90;;
43457;SDS011;29046;54.184;18.680;2023-07-29T11:49:58;3.45;;;2.80;;
43457;SDS011;29046;54.184;18.680;2023-07-29T11:52:31;5.18;;;3.13;;
43457;SDS011;29046;54.184;18.680;2023-07-29T11:55:00;4.68;;;3.13;;
43457;SDS011;29046;54.184;18.680;2023-07-29T11:57:29;3.88;;;2.80;;
43457;SDS011;29046;54.184;18.680;2023-07-29T11:59:57;4.32;;;3.47;;
43457;SDS011;29046;54.184;18.680;2023-07-29T12:02:24;3.47;;;2.90;;
43457;SDS011;29046;54.184;18.680;2023-07-29T12:04:52;12.30;;;3.42;;
43457;SDS011;29046;54.184;18.680;2023-07-29T12:07:20;5.05;;;2.95;;
43457;SDS011;29046;54.184;18.680;2023-07-29T12:09:48;4.90;;;2.90;;
43457;SDS011;29046;54.184;18.680;2023-07-29T12:12:16;6.75;;;3.55;;
43457;SDS011;29046;54.184;18.680;2023-07-29T12:14:47;3.67;;;2.67;;
43457;SDS011;29046;54.184;18.680;2023-07-29T12:17:15;4.18;;;3.25;;
43457;SDS011;29046;54.184;18.680;2023-07-29T12:19:43;3.55;;;2.90;;
43457;SDS011;29046;54.184;18.680;2023-07-29T12:22:11;6.25;;;2.60;;
43457;SDS011;29046;54.184;18.680;2023-07-29T12:24:39;3.28;;;2.50;;
43457;SDS011;29046;54.184;18.680;2023-07-29T12:27:13;6.05;;;2.67;;
43457;SDS011;29046;54.184;18.680;2023-07-29T12:29:44;4.55;;;2.50;;
43457;SDS011;29046;54.184;18.680;2023-07-29T12:32:15;3.03;;;2.70;;
43457;SDS011;29046;54.184;18.680;2023-07-29T12:34:42;5.22;;;2.75;;
43457;SDS011;29046;54.184;18.680;2023-07-29T12:37:10;3.10;;;2.80;;
43457;SDS011;29046;54.184;18.680;2023-07-29T12:39:39;4.22;;;2.95;;
43457;SDS011;29046;54.184;18.680;2023-07-29T12:42:11;4.95;;;3.03;;
43457;SDS011;29046;54.184;18.680;2023-07-29T12:44:38;4.25;;;2.92;;
43457;SDS011;29046;54.184;18.680;2023-07-29T12:47:06;3.92;;;3.03;;
43457;SDS011;29046;54.184;18.680;2023-07-29T12:49:35;3.85;;;2.83;;
43457;SDS011;29046;54.184;18.680;2023-07-29T12:52:03;3.70;;;3.25;;
43457;SDS011;29046;54.184;18.680;2023-07-29T12:54:30;5.60;;;2.55;;
43457;SDS011;29046;54.184;18.680;2023-07-29T12:56:58;4.85;;;3.15;;
43457;SDS011;29046;54.184;18.680;2023-07-29T12:59:25;4.65;;;2.60;;
43457;SDS011;29046;54.184;18.680;2023-07-29T13:01:53;2.80;;;2.50;;
43457;SDS011;29046;54.184;18.680;2023-07-29T13:04:20;7.50;;;2.70;;
43457;SDS011;29046;54.184;18.680;2023-07-29T13:06:48;5.38;;;2.90;;
43457;SDS011;29046;54.184;18.680;2023-07-29T13:09:15;6.15;;;3.30;;
43457;SDS011;29046;54.184;18.680;2023-07-29T13:11:43;5.38;;;2.90;;
43457;SDS011;29046;54.184;18.680;2023-07-29T13:14:11;3.88;;;2.70;;
43457;SDS011;29046;54.184;18.680;2023-07-29T13:16:38;4.07;;;2.92;;
43457;SDS011;29046;54.184;18.680;2023-07-29T13:19:07;3.75;;;2.70;;
43457;SDS011;29046;54.184;18.680;2023-07-29T13:21:34;4.45;;;2.70;;
43457;SDS011;29046;54.184;18.680;2023-07-29T13:24:02;3.42;;;2.55;;
43457;SDS011;29046;54.184;18.680;2023-07-29T13:26:30;5.53;;;3.17;;
43457;SDS011;29046;54.184;18.680;2023-07-29T13:28:57;3.10;;;2.80;;
43457;SDS011;29046;54.184;18.680;2023-07-29T13:31:25;5.63;;;2.85;;
43457;SDS011;29046;54.184;18.680;2023-07-29T13:33:53;2.72;;;2.42;;
43457;SDS011;29046;54.184;18.680;2023-07-29T13:36:20;3.30;;;2.60;;
43457;SDS011;29046;54.184;18.680;2023-07-29T13:38:48;3.92;;;2.65;;
43457;SDS011;29046;54.184;18.680;2023-07-29T13:41:15;3.05;;;2.30;;
43457;SDS011;29046;54.184;18.680;2023-07-29T13:43:43;3.08;;;2.40;;
43457;SDS011;29046;54.184;18.680;2023-07-29T13:46:10;6.07;;;2.38;;
43457;SDS011;29046;54.184;18.680;2023-07-29T13:48:38;3.03;;;2.72;;
43457;SDS011;29046;54.184;18.680;2023-07-29T13:51:05;2.90;;;2.60;;
43457;SDS011;29046;54.184;18.680;2023-07-29T13:53:33;2.85;;;2.53;;
43457;SDS011;29046;54.184;18.680;2023-07-29T13:56:00;3.13;;;2.30;;
43457;SDS011;29046;54.184;18.680;2023-07-29T13:58:28;3.22;;;2.88;;
43457;SDS011;29046;54.184;18.680;2023-07-29T14:00:55;4.18;;;2.70;;
43457;SDS011;29046;54.184;18.680;2023-07-29T14:03:25;3.25;;;2.80;;
43457;SDS011;29046;54.184;18.680;2023-07-29T14:05:53;2.72;;;2.53;;
43457;SDS011;29046;54.184;18.680;2023-07-29T14:08:21;3.15;;;2.80;;
43457;SDS011;29046;54.184;18.680;2023-07-29T14:10:49;3.10;;;2.80;;
43457;SDS011;29046;54.184;18.680;2023-07-29T14:13:17;8.38;;;3.05;;
43457;SDS011;29046;54.184;18.680;2023-07-29T14:15:45;4.63;;;2.67;;
43457;SDS011;29046;54.184;18.680;2023-07-29T14:18:12;4.90;;;2.83;;
43457;SDS011;29046;54.184;18.680;2023-07-29T14:20:40;9.52;;;3.17;;
43457;SDS011;29046;54.184;18.680;2023-07-29T14:23:07;14.77;;;3.33;;
43457;SDS011;29046;54.184;18.680;2023-07-29T14:25:35;2.97;;;2.60;;
43457;SDS011;29046;54.184;18.680;2023-07-29T14:28:03;2.95;;;2.75;;
43457;SDS011;29046;54.184;18.680;2023-07-29T14:30:31;4.80;;;2.90;;
43457;SDS011;29046;54.184;18.680;2023-07-29T14:32:58;3.22;;;2.92;;
43457;SDS011;29046;54.184;18.680;2023-07-29T14:35:26;4.05;;;2.60;;
43457;SDS011;29046;54.184;18.680;2023-07-29T14:37:54;3.55;;;2.70;;
43457;SDS011;29046;54.184;18.680;2023-07-29T14:40:21;3.17;;;2.70;;
43457;SDS011;29046;54.184;18.680;2023-07-29T14:42:49;5.22;;;2.80;;
43457;SDS011;29046;54.184;18.680;2023-07-29T14:45:16;3.75;;;2.78;;
43457;SDS011;29046;54.184;18.680;2023-07-29T14:47:44;6.90;;;3.00;;
43457;SDS011;29046;54.184;18.680;2023-07-29T14:50:11;10.35;;;2.90;;
43457;SDS011;29046;54.184;18.680;2023-07-29T14:52:39;7.55;;;2.95;;
43457;SDS011;29046;54.184;18.680;2023-07-29T14:55:07;4.28;;;2.67;;
43457;SDS011;29046;54.184;18.680;2023-07-29T14:57:34;3.80;;;2.63;;